createdAt,value
2018-06-13T00:02:14.966Z,3.70
2018-06-13T00:04:49.193Z,4.17
2018-06-13T00:07:23.079Z,4.60
2018-06-13T00:09:57.097Z,4.03
2018-06-13T00:12:30.999Z,4.30
2018-06-13T00:15:05.555Z,4.13
2018-06-13T00:17:39.572Z,4.23
2018-06-13T00:20:13.551Z,4.00
2018-06-13T00:22:47.764Z,4.40
2018-06-13T00:25:21.996Z,4.17
2018-06-13T00:27:56.706Z,3.87
2018-06-13T00:30:30.720Z,4.00
2018-06-13T00:33:04.885Z,4.00
2018-06-13T00:35:39.324Z,4.10
2018-06-13T00:38:13.390Z,3.90
2018-06-13T00:40:47.534Z,3.80
2018-06-13T00:43:21.577Z,3.60
2018-06-13T00:45:55.700Z,3.90
2018-06-13T00:48:29.719Z,4.40
2018-06-13T00:51:03.774Z,3.70
2018-06-13T00:53:38.074Z,3.70
2018-06-13T00:56:23.404Z,3.47
2018-06-13T00:58:57.517Z,3.67
2018-06-13T01:01:31.359Z,4.00
2018-06-13T01:04:05.871Z,4.00
2018-06-13T01:06:40.346Z,3.83
2018-06-13T01:09:14.433Z,3.43
2018-06-13T01:11:48.444Z,4.30
2018-06-13T01:14:22.485Z,3.27
2018-06-13T01:16:56.515Z,3.93
2018-06-13T01:19:30.799Z,3.67
2018-06-13T01:22:05.141Z,3.87
2018-06-13T01:24:39.695Z,4.00
2018-06-13T01:27:13.595Z,3.77
2018-06-13T01:29:47.539Z,3.80
2018-06-13T01:32:21.409Z,4.00
2018-06-13T01:34:55.250Z,4.03
2018-06-13T01:37:29.755Z,4.30
2018-06-13T01:40:03.740Z,4.40
2018-06-13T01:42:37.759Z,4.77
2018-06-13T01:45:11.706Z,3.67
2018-06-13T01:47:45.405Z,3.93
2018-06-13T01:50:20.065Z,3.57
2018-06-13T01:52:53.841Z,3.97
2018-06-13T01:55:28.595Z,3.70
2018-06-13T01:58:02.577Z,4.73
2018-06-13T02:00:36.428Z,4.53
2018-06-13T02:03:10.206Z,4.27
2018-06-13T02:05:44.275Z,4.47
2018-06-13T02:08:18.308Z,4.40
2018-06-13T02:10:52.254Z,4.10
2018-06-13T02:13:26.274Z,4.40
2018-06-13T02:16:00.160Z,4.70
2018-06-13T02:18:34.036Z,4.50
2018-06-13T02:21:08.214Z,4.60
2018-06-13T02:23:42.236Z,4.60
2018-06-13T02:26:16.117Z,4.53
2018-06-13T02:28:50.196Z,4.67
2018-06-13T02:31:24.264Z,4.43
2018-06-13T02:33:58.634Z,4.90
2018-06-13T02:36:32.764Z,4.70
2018-06-13T02:39:07.706Z,4.40
2018-06-13T02:41:42.225Z,3.97
2018-06-13T02:44:16.046Z,3.97
2018-06-13T02:46:50.214Z,3.67
2018-06-13T02:49:24.133Z,3.97
2018-06-13T02:51:58.150Z,3.47
2018-06-13T02:54:32.476Z,3.33
2018-06-13T02:57:06.340Z,3.20
2018-06-13T02:59:40.394Z,2.90
2018-06-13T03:02:14.410Z,2.50
2018-06-13T03:04:48.366Z,2.93
2018-06-13T03:07:22.466Z,2.90
2018-06-13T03:09:56.507Z,2.90
2018-06-13T03:12:30.248Z,2.73
2018-06-13T03:15:04.441Z,2.67
2018-06-13T03:17:38.461Z,2.60
2018-06-13T03:20:19.152Z,2.83
2018-06-13T03:22:53.171Z,2.90
2018-06-13T03:25:27.030Z,2.83
2018-06-13T03:28:01.109Z,3.00
2018-06-13T03:30:35.070Z,3.30
2018-06-13T03:33:08.895Z,2.77
2018-06-13T03:35:42.806Z,3.70
2018-06-13T03:38:16.818Z,3.17
2018-06-13T03:40:54.342Z,2.67
2018-06-13T03:43:28.460Z,3.00
2018-06-13T03:46:02.646Z,3.07
2018-06-13T03:48:36.634Z,3.30
2018-06-13T03:51:10.445Z,2.97
2018-06-13T03:53:44.464Z,2.77
2018-06-13T03:56:18.335Z,3.10
2018-06-13T03:58:52.555Z,3.23
2018-06-13T04:01:26.724Z,2.90
2018-06-13T04:04:01.229Z,2.97
2018-06-13T04:06:35.192Z,2.90
2018-06-13T04:09:09.126Z,2.90
2018-06-13T04:11:43.057Z,2.80
2018-06-13T04:14:16.865Z,3.40
2018-06-13T04:16:51.207Z,3.17
2018-06-13T04:19:25.121Z,3.30
2018-06-13T04:21:59.111Z,2.90
2018-06-13T04:24:33.217Z,2.97
2018-06-13T04:27:07.496Z,2.80
2018-06-13T04:29:41.230Z,2.97
2018-06-13T04:32:15.669Z,2.93
2018-06-13T04:34:49.772Z,3.20
2018-06-13T04:37:23.754Z,3.50
2018-06-13T04:39:58.511Z,3.23
2018-06-13T04:42:32.277Z,3.67
2018-06-13T04:45:06.486Z,3.23
2018-06-13T04:47:40.454Z,3.60
2018-06-13T04:50:14.431Z,3.40
2018-06-13T04:52:48.395Z,4.20
2018-06-13T04:55:22.515Z,4.20
2018-06-13T04:57:56.540Z,3.90
2018-06-13T05:00:30.856Z,4.10
2018-06-13T05:03:04.890Z,4.20
2018-06-13T05:05:40.121Z,4.70
2018-06-13T05:08:14.199Z,4.27
2018-06-13T05:10:48.346Z,4.30
2018-06-13T05:13:22.450Z,3.90
2018-06-13T05:15:56.576Z,4.43
2018-06-13T05:18:30.896Z,4.10
2018-06-13T05:21:05.265Z,3.80
2018-06-13T05:23:39.420Z,4.03
2018-06-13T05:26:13.534Z,4.27
2018-06-13T05:28:47.662Z,3.53
2018-06-13T05:31:21.406Z,4.17
2018-06-13T05:33:55.456Z,3.90
2018-06-13T05:36:29.462Z,4.10
2018-06-13T05:39:05.395Z,4.30
2018-06-13T05:41:39.277Z,4.70
2018-06-13T05:44:13.142Z,4.80
2018-06-13T05:46:47.542Z,4.70
2018-06-13T05:49:21.494Z,4.47
2018-06-13T05:51:55.909Z,4.73
2018-06-13T05:54:30.349Z,4.40
2018-06-13T05:57:04.533Z,5.00
2018-06-13T05:59:38.757Z,5.17
2018-06-13T06:02:19.428Z,4.70
2018-06-13T06:04:53.445Z,4.73
2018-06-13T06:07:27.419Z,4.20
2018-06-13T06:10:03.282Z,4.10
2018-06-13T06:12:37.389Z,4.47
2018-06-13T06:15:11.225Z,4.67
2018-06-13T06:17:45.160Z,4.40
2018-06-13T06:20:19.252Z,4.07
2018-06-13T06:22:52.989Z,4.30
2018-06-13T06:25:26.870Z,4.07
2018-06-13T06:28:01.077Z,3.97
2018-06-13T06:30:35.167Z,3.70
2018-06-13T06:33:09.307Z,3.63
2018-06-13T06:35:43.081Z,3.57
2018-06-13T06:38:17.251Z,3.37
2018-06-13T06:40:51.201Z,3.07
2018-06-13T06:43:24.901Z,2.77
2018-06-13T06:45:58.992Z,3.00
2018-06-13T06:48:33.067Z,2.60
2018-06-13T06:51:07.057Z,3.20
2018-06-13T06:53:41.306Z,2.83
2018-06-13T06:56:15.187Z,2.77
2018-06-13T06:58:49.248Z,2.83
2018-06-13T07:01:23.116Z,2.57
2018-06-13T07:03:57.408Z,2.33
2018-06-13T07:06:31.120Z,2.60
2018-06-13T07:09:09.474Z,2.20
2018-06-13T07:11:43.532Z,2.50
2018-06-13T07:14:17.342Z,2.07
2018-06-13T07:16:51.410Z,2.33
2018-06-13T07:19:25.381Z,2.33
2018-06-13T07:21:59.308Z,2.33
2018-06-13T07:24:33.790Z,2.13
2018-06-13T07:27:07.967Z,2.07
2018-06-13T07:29:41.880Z,2.37
2018-06-13T07:32:15.949Z,2.30
2018-06-13T07:34:50.038Z,2.60
2018-06-13T07:37:24.052Z,2.43
2018-06-13T07:39:58.178Z,2.40
2018-06-13T07:42:32.202Z,2.40
2018-06-13T07:45:06.715Z,2.10
2018-06-13T07:47:40.652Z,2.33
2018-06-13T07:50:14.679Z,2.20
2018-06-13T07:52:48.845Z,2.37
2018-06-13T07:55:22.698Z,2.00
2018-06-13T07:57:57.097Z,2.30
2018-06-13T08:00:31.310Z,2.47
2018-06-13T08:03:06.053Z,2.23
2018-06-13T08:05:39.911Z,2.67
2018-06-13T08:08:13.937Z,2.30
2018-06-13T08:10:47.776Z,2.30
2018-06-13T08:13:21.747Z,2.43
2018-06-13T08:15:55.608Z,2.73
2018-06-13T08:18:29.756Z,2.80
2018-06-13T08:21:03.812Z,3.03
2018-06-13T08:23:38.008Z,3.10
2018-06-13T08:26:12.063Z,3.40
2018-06-13T08:28:46.017Z,3.60
2018-06-13T08:31:19.847Z,3.87
2018-06-13T08:33:53.863Z,3.90
2018-06-13T08:36:28.077Z,3.57
2018-06-13T08:39:02.096Z,4.23
2018-06-13T08:41:36.026Z,3.70
2018-06-13T08:44:10.316Z,4.40
2018-06-13T08:46:44.604Z,4.53
2018-06-13T08:49:18.295Z,4.57
2018-06-13T08:51:52.172Z,4.77
2018-06-13T08:54:26.318Z,4.77
2018-06-13T08:57:00.455Z,4.80
2018-06-13T08:59:34.375Z,4.83
2018-06-13T09:02:08.574Z,5.30
2018-06-13T09:04:42.481Z,5.43
2018-06-13T09:07:16.610Z,5.70
2018-06-13T09:09:50.585Z,5.00
2018-06-13T09:12:24.681Z,4.70
2018-06-13T09:14:58.529Z,4.47
2018-06-13T09:17:32.830Z,4.13
2018-06-13T09:20:06.841Z,3.60
2018-06-13T09:22:40.746Z,3.20
2018-06-13T09:25:14.572Z,2.20
2018-06-13T09:27:48.547Z,2.50
2018-06-13T09:30:22.783Z,2.00
2018-06-13T09:32:56.936Z,1.83
2018-06-13T09:35:31.005Z,1.97
2018-06-13T09:38:05.202Z,1.40
2018-06-13T09:40:40.140Z,1.63
2018-06-13T09:43:14.568Z,1.80
2018-06-13T09:45:48.606Z,1.50
2018-06-13T09:48:22.552Z,1.63
2018-06-13T09:50:56.496Z,1.60
2018-06-13T09:53:30.427Z,1.80
2018-06-13T09:56:04.987Z,1.90
2018-06-13T09:58:44.513Z,2.10
2018-06-13T10:01:23.938Z,1.80
2018-06-13T10:03:57.694Z,1.70
2018-06-13T10:06:31.538Z,1.87
2018-06-13T10:09:07.189Z,1.70
2018-06-13T10:11:41.734Z,2.13
2018-06-13T10:14:16.230Z,1.87
2018-06-13T10:16:49.932Z,2.20
2018-06-13T10:19:24.135Z,2.00
2018-06-13T10:21:58.076Z,2.20
2018-06-13T10:24:32.016Z,2.20
2018-06-13T10:27:11.327Z,2.50
2018-06-13T10:29:45.117Z,2.70
2018-06-13T10:32:19.026Z,2.17
2018-06-13T10:34:53.199Z,2.70
2018-06-13T10:37:27.182Z,2.83
2018-06-13T10:40:01.265Z,2.50
2018-06-13T10:42:35.240Z,2.90
2018-06-13T10:45:09.501Z,2.63
2018-06-13T10:47:43.348Z,3.10
2018-06-13T10:50:17.746Z,3.20
2018-06-13T10:52:51.897Z,2.70
2018-06-13T10:55:26.745Z,3.13
2018-06-13T10:58:01.281Z,3.30
2018-06-13T11:00:35.592Z,2.70
2018-06-13T11:03:09.763Z,2.83
2018-06-13T11:05:43.828Z,3.13
2018-06-13T11:08:18.361Z,2.53
2018-06-13T11:10:52.110Z,2.67
2018-06-13T11:13:25.928Z,2.73
2018-06-13T11:16:00.451Z,3.00
2018-06-13T11:18:34.582Z,3.57
2018-06-13T11:21:09.192Z,3.33
2018-06-13T11:23:43.176Z,3.27
2018-06-13T11:26:17.421Z,3.43
2018-06-13T11:28:51.517Z,3.27
2018-06-13T11:31:25.224Z,4.03
2018-06-13T11:33:59.431Z,3.80
2018-06-13T11:36:33.390Z,3.20
2018-06-13T11:39:08.861Z,3.97
2018-06-13T11:41:43.132Z,3.70
2018-06-13T11:44:17.067Z,3.80
2018-06-13T11:46:51.207Z,4.05
2018-06-13T11:49:25.137Z,4.12
2018-06-13T11:51:59.128Z,3.80
2018-06-13T11:54:32.978Z,3.08
2018-06-13T11:57:07.605Z,3.50
2018-06-13T11:59:41.625Z,3.22
2018-06-13T12:02:15.725Z,3.12
2018-06-13T12:04:49.907Z,3.30
2018-06-13T12:07:24.475Z,3.77
2018-06-13T12:09:58.400Z,3.58
2018-06-13T12:12:32.349Z,3.40
2018-06-13T12:15:06.351Z,3.10
2018-06-13T12:17:40.402Z,3.13
2018-06-13T12:20:14.498Z,3.00
2018-06-13T12:22:48.316Z,3.73
2018-06-13T12:25:22.385Z,3.70
2018-06-13T12:27:56.396Z,3.80
2018-06-13T12:30:30.488Z,3.80
2018-06-13T12:33:04.687Z,3.87
2018-06-13T12:35:38.728Z,4.23
2018-06-13T12:38:12.754Z,4.40
2018-06-13T12:40:47.252Z,5.07
2018-06-13T12:43:21.204Z,4.70
2018-06-13T12:45:55.097Z,4.20
2018-06-13T12:48:29.175Z,4.33
2018-06-13T12:51:03.568Z,3.60
2018-06-13T12:53:37.582Z,3.80
2018-06-13T12:56:11.578Z,3.00
2018-06-13T12:58:46.052Z,2.50
2018-06-13T13:01:19.800Z,2.63
2018-06-13T13:03:53.919Z,2.40
2018-06-13T13:06:28.172Z,2.30
2018-06-13T13:09:02.252Z,1.80
2018-06-13T13:11:36.268Z,2.27
2018-06-13T13:14:10.145Z,2.03
2018-06-13T13:16:44.303Z,2.30
2018-06-13T13:19:18.316Z,2.00
2018-06-13T13:21:52.367Z,2.00
2018-06-13T13:24:26.617Z,2.00
2018-06-13T13:27:00.736Z,1.90
2018-06-13T13:29:34.747Z,2.00
2018-06-13T13:32:08.737Z,2.27
2018-06-13T13:34:42.833Z,2.20
2018-06-13T13:37:16.874Z,2.98
2018-06-13T13:39:51.161Z,2.25
2018-06-13T13:42:25.461Z,2.80
2018-06-13T13:44:59.469Z,2.75
2018-06-13T13:47:33.492Z,2.60
2018-06-13T13:50:07.883Z,2.72
2018-06-13T13:52:41.982Z,2.10
2018-06-13T13:55:15.879Z,2.40
2018-06-13T13:57:49.917Z,2.67
2018-06-13T14:00:24.199Z,2.55
2018-06-13T14:02:58.255Z,2.95
2018-06-13T14:05:32.351Z,2.33
2018-06-13T14:08:07.279Z,2.63
2018-06-13T14:10:41.929Z,2.60
2018-06-13T14:13:15.943Z,2.52
2018-06-13T14:15:50.217Z,2.60
2018-06-13T14:18:25.052Z,2.00
2018-06-13T14:20:59.042Z,2.67
2018-06-13T14:23:33.438Z,2.53
2018-06-13T14:26:07.515Z,3.10
2018-06-13T14:28:41.720Z,2.20
2018-06-13T14:31:16.259Z,2.13
2018-06-13T14:33:50.996Z,2.22
2018-06-13T14:36:25.288Z,2.37
2018-06-13T14:38:59.427Z,2.22
2018-06-13T14:41:33.699Z,2.40
2018-06-13T14:44:08.062Z,3.00
2018-06-13T14:46:42.089Z,2.45
2018-06-13T14:49:16.251Z,2.83
2018-06-13T14:51:52.991Z,2.90
2018-06-13T14:54:27.252Z,2.25
2018-06-13T14:57:01.348Z,2.85
2018-06-13T14:59:35.556Z,2.60
2018-06-13T15:02:09.455Z,2.70
2018-06-13T15:04:43.497Z,2.55
2018-06-13T15:07:17.322Z,2.70
2018-06-13T15:09:51.339Z,2.27
2018-06-13T15:12:25.649Z,2.98
2018-06-13T15:14:59.512Z,2.20
2018-06-13T15:17:33.776Z,2.37
2018-06-13T15:20:07.792Z,2.40
2018-06-13T15:22:42.384Z,2.62
2018-06-13T15:25:16.615Z,2.37
2018-06-13T15:27:50.361Z,2.72
2018-06-13T15:30:24.856Z,2.95
2018-06-13T15:32:58.962Z,2.83
2018-06-13T15:35:32.877Z,2.85
2018-06-13T15:38:07.184Z,2.40
2018-06-13T15:40:42.164Z,2.20
2018-06-13T15:43:16.018Z,2.90
2018-06-13T15:45:50.192Z,2.87
2018-06-13T15:48:24.267Z,2.72
2018-06-13T15:50:58.192Z,3.12
2018-06-13T15:53:32.315Z,2.60
2018-06-13T15:56:06.618Z,3.35
2018-06-13T15:58:40.782Z,2.85
2018-06-13T16:01:14.675Z,2.67
2018-06-13T16:03:48.792Z,2.83
2018-06-13T16:06:22.789Z,3.05
2018-06-13T16:08:56.845Z,2.93
2018-06-13T16:11:30.757Z,3.00
2018-06-13T16:14:04.880Z,2.90
2018-06-13T16:16:39.077Z,3.40
2018-06-13T16:19:12.944Z,3.23
2018-06-13T16:21:47.360Z,2.93
2018-06-13T16:24:21.423Z,3.10
2018-06-13T16:26:55.325Z,3.70
2018-06-13T16:29:29.487Z,3.50
2018-06-13T16:32:03.596Z,3.85
2018-06-13T16:34:37.766Z,3.27
2018-06-13T16:37:12.172Z,3.30
2018-06-13T16:39:46.311Z,3.10
2018-06-13T16:42:20.498Z,2.42
2018-06-13T16:44:54.574Z,2.75
2018-06-13T16:47:28.223Z,2.92
2018-06-13T16:50:12.314Z,3.15
2018-06-13T16:53:59.489Z,3.60
2018-06-13T16:56:33.637Z,3.35
2018-06-13T16:59:07.823Z,2.30
2018-06-13T17:01:42.319Z,2.80
2018-06-13T17:04:16.633Z,3.15
2018-06-13T17:06:50.879Z,3.27
2018-06-13T17:09:25.030Z,2.52
2018-06-13T17:11:59.006Z,2.95
2018-06-13T17:14:33.727Z,3.12
2018-06-13T17:17:07.989Z,2.85
2018-06-13T17:19:42.786Z,3.30
2018-06-13T17:22:17.076Z,3.37
2018-06-13T17:24:51.659Z,2.80
2018-06-13T17:27:25.955Z,3.00
2018-06-13T17:30:00.192Z,2.90
2018-06-13T17:32:34.337Z,3.12
2018-06-13T17:35:08.439Z,3.05
2018-06-13T17:37:42.719Z,3.17
2018-06-13T17:40:17.128Z,3.00
2018-06-13T17:42:51.129Z,3.05
2018-06-13T17:45:25.618Z,3.40
2018-06-13T17:47:59.667Z,3.02
2018-06-13T17:50:33.908Z,2.42
2018-06-13T17:53:08.107Z,2.20
2018-06-13T17:55:42.303Z,2.45
2018-06-13T17:58:16.662Z,2.50
2018-06-13T18:00:51.046Z,2.30
2018-06-13T18:03:25.340Z,2.70
2018-06-13T18:05:59.672Z,2.23
2018-06-13T18:08:34.158Z,2.30
2018-06-13T18:11:08.424Z,2.50
2018-06-13T18:13:42.769Z,2.22
2018-06-13T18:16:17.224Z,2.00
2018-06-13T18:18:51.723Z,2.27
2018-06-13T18:21:25.955Z,2.40
2018-06-13T18:24:00.115Z,2.10
2018-06-13T18:26:34.714Z,2.30
2018-06-13T18:29:09.091Z,2.37
2018-06-13T18:31:43.948Z,2.40
2018-06-13T18:34:18.013Z,2.30
2018-06-13T18:36:52.014Z,2.33
2018-06-13T18:39:26.423Z,2.37
2018-06-13T18:42:00.453Z,2.40
2018-06-13T18:44:34.544Z,2.80
2018-06-13T18:47:08.999Z,2.40
2018-06-13T18:49:43.194Z,3.07
2018-06-13T18:52:17.115Z,2.63
2018-06-13T18:54:51.232Z,2.57
2018-06-13T18:57:25.613Z,2.60
2018-06-13T18:59:59.931Z,2.70
2018-06-13T19:02:34.278Z,3.00
2018-06-13T19:05:08.757Z,2.70
2018-06-13T19:07:42.862Z,3.17
2018-06-13T19:10:16.904Z,2.60
2018-06-13T19:12:51.182Z,2.33
2018-06-13T19:15:25.382Z,2.67
2018-06-13T19:17:59.674Z,2.87
2018-06-13T19:20:33.985Z,2.83
2018-06-13T19:23:08.247Z,2.80
2018-06-13T19:25:42.415Z,2.80
2018-06-13T19:28:16.753Z,2.60
2018-06-13T19:30:51.305Z,2.40
2018-06-13T19:33:25.157Z,2.50
2018-06-13T19:35:59.364Z,2.57
2018-06-13T19:38:34.001Z,2.37
2018-06-13T19:41:08.127Z,2.30
2018-06-13T19:43:44.200Z,2.60
2018-06-13T19:46:18.347Z,2.20
2018-06-13T19:48:53.718Z,2.10
2018-06-13T19:51:28.159Z,2.07
2018-06-13T19:54:08.262Z,2.40
2018-06-13T19:56:42.311Z,2.00
2018-06-13T19:59:16.237Z,2.30
2018-06-13T20:01:50.297Z,2.03
2018-06-13T20:04:30.027Z,1.83
2018-06-13T20:07:04.523Z,2.40
2018-06-13T20:09:38.649Z,2.90
2018-06-13T20:12:55.132Z,2.73
2018-06-13T20:15:34.800Z,2.53
2018-06-13T20:18:14.292Z,2.60
2018-06-13T20:20:48.581Z,2.40
2018-06-13T20:23:22.726Z,2.60
2018-06-13T20:26:02.259Z,2.80
2018-06-13T20:28:42.271Z,2.60
2018-06-13T20:31:18.831Z,2.50
2018-06-13T20:33:52.715Z,2.53
2018-06-13T20:36:26.779Z,2.60
2018-06-13T20:39:00.826Z,2.53
2018-06-13T20:41:35.268Z,2.60
2018-06-13T20:44:10.346Z,2.63
2018-06-13T20:46:44.549Z,2.80
2018-06-13T20:49:18.937Z,2.60
2018-06-13T20:51:53.062Z,2.47
2018-06-13T20:54:27.062Z,2.73
2018-06-13T20:57:01.536Z,2.80
2018-06-13T20:59:35.413Z,3.10
2018-06-13T21:02:09.957Z,2.80
2018-06-13T21:04:43.913Z,2.63
2018-06-13T21:07:17.936Z,2.87
2018-06-13T21:09:51.830Z,2.70
2018-06-13T21:12:25.974Z,3.00
2018-06-13T21:15:00.271Z,3.30
2018-06-13T21:17:34.603Z,3.00
2018-06-13T21:20:08.786Z,2.87
2018-06-13T21:22:43.152Z,2.83
2018-06-13T21:25:17.230Z,3.47
2018-06-13T21:27:51.531Z,2.97
2018-06-13T21:30:25.676Z,3.30
2018-06-13T21:33:00.131Z,3.20
2018-06-13T21:35:34.203Z,3.20
2018-06-13T21:38:08.470Z,3.23
2018-06-13T21:40:42.831Z,3.40
2018-06-13T21:43:16.825Z,2.90
2018-06-13T21:45:50.661Z,3.20
2018-06-13T21:48:24.637Z,3.47
2018-06-13T21:50:59.269Z,3.50
2018-06-13T21:53:33.596Z,3.13
2018-06-13T21:56:07.638Z,3.93
2018-06-13T21:58:41.528Z,3.30
2018-06-13T22:01:15.597Z,3.00
2018-06-13T22:03:49.617Z,3.37
2018-06-13T22:06:23.674Z,3.23
2018-06-13T22:08:58.048Z,3.40
2018-06-13T22:11:35.552Z,3.93
2018-06-13T22:14:09.352Z,3.43
2018-06-13T22:16:43.578Z,3.60
2018-06-13T22:19:17.790Z,3.80
2018-06-13T22:21:52.232Z,3.33
2018-06-13T22:24:26.201Z,3.83
2018-06-13T22:27:00.599Z,3.97
2018-06-13T22:29:34.436Z,4.10
2018-06-13T22:32:08.527Z,4.13
2018-06-13T22:34:43.388Z,3.53
2018-06-13T22:37:17.261Z,3.83
2018-06-13T22:39:51.277Z,4.10
2018-06-13T22:42:26.104Z,3.80
2018-06-13T22:45:00.056Z,3.87
2018-06-13T22:47:34.293Z,3.87
2018-06-13T22:50:08.099Z,3.60
2018-06-13T22:52:41.922Z,3.90
2018-06-13T22:55:16.151Z,3.90
2018-06-13T22:57:50.034Z,4.20
2018-06-13T23:00:31.697Z,4.13
2018-06-13T23:03:06.117Z,4.53
2018-06-13T23:05:40.132Z,4.33
2018-06-13T23:08:14.057Z,4.30
2018-06-13T23:10:47.862Z,4.60
2018-06-13T23:13:21.983Z,4.77
2018-06-13T23:15:56.107Z,4.70
2018-06-13T23:18:30.413Z,4.10
2018-06-13T23:21:04.604Z,4.07
2018-06-13T23:23:38.567Z,4.17
2018-06-13T23:26:12.649Z,4.20
2018-06-13T23:28:46.662Z,4.93
2018-06-13T23:31:20.838Z,4.77
2018-06-13T23:33:55.773Z,4.87
2018-06-13T23:36:29.391Z,4.70
2018-06-13T23:39:04.936Z,4.67
2018-06-13T23:41:38.892Z,4.93
2018-06-13T23:44:12.893Z,5.00
2018-06-13T23:46:46.848Z,5.00
2018-06-13T23:49:21.503Z,4.80
2018-06-13T23:51:55.497Z,4.67
2018-06-13T23:54:29.596Z,5.40
2018-06-13T23:57:03.607Z,5.60
2018-06-13T23:59:37.598Z,5.10
